Calcasieu River — WDD9615 — position and weather

sailwx.info

Track history (hours):
 
Tides and Currents Weather Stations Pressure Air Temp Water Temp Dewpoint Dewpoint Depression Visibility Wind Speed Wind Dir Waves Ship Positions

Calcasieu River

Owner: Great Lakes Dredge & Dock Company, LLC, Oak Brook, IL. More information available from US FCC via Universal Licensing System and Coast Guard Vessel Documentation Center.

Last reported at 2018-Jan-21 18:00 UTC. Time now 2018-Jan-21 18:21 UTC.
Position N 39°51' W 075°18'.

; draft 3.3 m.

MMSI: 367313850.

Date/timePositionNaut miles runAvg speedWind from/ knotsBaromVisibWave heightAir tempDewpointWater temp
2018-Jan-21 18:00N 39°51' W 075°18'0 0.4
2018-Jan-21 17:30N 39°51' W 075°18'612.4
2018-Jan-21 16:59N 39°48' W 075°25'0 0.3
2018-Jan-21 16:26N 39°48' W 075°25'2 4.8
2018-Jan-21 16:00N 39°49' W 075°23'0 0.5
2018-Jan-21 15:30N 39°50' W 075°23'0 0.0
2018-Jan-21 15:00N 39°50' W 075°23'0 0.0
2018-Jan-21 14:30N 39°50' W 075°23'0 0.5
2018-Jan-21 14:00N 39°49' W 075°23'3 2.2
2018-Jan-21 12:32N 39°48' W 075°26'0 1.7
2018-Jan-21 12:28N 39°48' W 075°26'3 6.7
2018-Jan-21 12:00N 39°49' W 075°23'3 6.1
2018-Jan-21 11:30N 39°51' W 075°20'2 3.3
2018-Jan-21 11:00N 39°51' W 075°18'0 0.0
2018-Jan-21 10:31N 39°51' W 075°18'0 0.0
2018-Jan-21 10:00N 39°51' W 075°18'0 0.0
2018-Jan-21 09:30N 39°51' W 075°18'0 0.0
2018-Jan-21 09:00N 39°51' W 075°18'0 0.0
2018-Jan-21 08:30N 39°51' W 075°18'0 0.0
2018-Jan-21 08:00N 39°51' W 075°18'0 0.0
2018-Jan-21 07:30N 39°51' W 075°18'0 0.0
2018-Jan-21 07:00N 39°51' W 075°18'0 0.0
2018-Jan-21 06:30N 39°51' W 075°18'0 0.0
2018-Jan-21 06:00N 39°51' W 075°18'0 0.0
2018-Jan-21 05:30N 39°51' W 075°18'0 0.0
2018-Jan-21 05:00N 39°51' W 075°18'0 0.0
2018-Jan-21 04:30N 39°51' W 075°18'0 0.0
2018-Jan-21 04:00N 39°51' W 075°18'0 0.0
2018-Jan-21 03:30N 39°51' W 075°18'0 0.0
2018-Jan-21 03:00N 39°51' W 075°18'0 0.0
2018-Jan-21 02:30N 39°51' W 075°18'0 0.0
2018-Jan-21 02:00N 39°51' W 075°18'0 0.0
2018-Jan-21 01:30N 39°51' W 075°18'0 0.0
2018-Jan-21 01:00N 39°51' W 075°18'0 0.0
2018-Jan-21 00:30N 39°51' W 075°18'0 0.0
2018-Jan-21 00:00N 39°51' W 075°18'0 0.0
2018-Jan-20 23:30N 39°51' W 075°18'0 0.0
2018-Jan-20 23:00N 39°51' W 075°18'0 0.0
2018-Jan-20 22:30N 39°51' W 075°18'0 0.0
2018-Jan-20 22:00N 39°51' W 075°18'0 0.0
2018-Jan-20 21:30N 39°51' W 075°18'0 0.0
2018-Jan-20 21:00N 39°51' W 075°18'0 0.0
2018-Jan-20 20:30N 39°51' W 075°18'0 0.0
2018-Jan-20 20:00N 39°51' W 075°18'0 0.0
2018-Jan-20 19:30N 39°51' W 075°18'0 0.0
2018-Jan-20 19:00N 39°51' W 075°18'0 0.7
2018-Jan-20 18:30N 39°51' W 075°18'4 8.4
2018-Jan-20 18:00N 39°49' W 075°23'2 3.8
2018-Jan-20 17:31N 39°48' W 075°25'815.6
2018-Jan-20 16:59N 39°42' W 075°31'1 0.3
2018-Jan-20 13:37N 39°41' W 075°31'1 9.4
2018-Jan-20 13:29N 39°42' W 075°31'5 9.6
2018-Jan-20 12:58N 39°47' W 075°28'4 9.7
2018-Jan-20 12:31N 39°49' W 075°23'5 9.1
2018-Jan-20 12:00N 39°51' W 075°18'0 0.7
2018-Jan-20 11:30N 39°51' W 075°18'0 0.0
2018-Jan-20 11:01N 39°51' W 075°18'0 0.0
2018-Jan-20 10:31N 39°51' W 075°18'0 0.0
2018-Jan-20 09:59N 39°51' W 075°18'0 0.0
2018-Jan-20 09:30N 39°51' W 075°18'0 0.0
2018-Jan-20 09:00N 39°51' W 075°18'0 0.0
2018-Jan-20 08:30N 39°51' W 075°18'0 0.0
2018-Jan-20 08:00N 39°51' W 075°18'0 0.0
2018-Jan-20 07:30N 39°51' W 075°18'0 0.0
2018-Jan-20 07:00N 39°51' W 075°18'0 0.0
2018-Jan-20 06:30N 39°51' W 075°18'0 0.0
2018-Jan-20 06:00N 39°51' W 075°18'0 0.0
2018-Jan-20 05:30N 39°51' W 075°18'0 0.0
2018-Jan-20 05:00N 39°51' W 075°18'0 0.0
2018-Jan-20 04:30N 39°51' W 075°18'0 0.0
2018-Jan-20 04:00N 39°51' W 075°18'0 0.0
2018-Jan-20 03:30N 39°51' W 075°18'0 0.0
2018-Jan-20 03:00N 39°51' W 075°18'0 0.0
2018-Jan-20 02:30N 39°51' W 075°18'0 0.0
2018-Jan-20 02:00N 39°51' W 075°18'0 0.0
2018-Jan-20 01:30N 39°51' W 075°18'0 0.0
2018-Jan-20 01:00N 39°51' W 075°18'0 0.0
2018-Jan-20 00:30N 39°51' W 075°18'0 0.0
2018-Jan-20 00:00N 39°51' W 075°18'0 0.0
2018-Jan-19 23:30N 39°51' W 075°18'0 0.0
2018-Jan-19 23:00N 39°51' W 075°18'0 0.0
2018-Jan-19 22:30N 39°51' W 075°18'0 0.0
2018-Jan-19 22:00N 39°51' W 075°18'0 0.0
2018-Jan-19 21:30N 39°51' W 075°18'0 0.0
2018-Jan-19 21:00N 39°51' W 075°18'0 0.0
2018-Jan-19 20:30N 39°51' W 075°18'0 0.0
2018-Jan-19 20:00N 39°51' W 075°18'0 0.0
2018-Jan-19 19:30N 39°51' W 075°18'1 2.6
2018-Jan-19 19:00N 39°51' W 075°19'3 6.4
2018-Jan-19 18:30N 39°50' W 075°23'0 0.0
2018-Jan-19 18:00N 39°50' W 075°23'0 0.0
2018-Jan-19 17:30N 39°50' W 075°23'0 0.5
2018-Jan-19 17:00N 39°49' W 075°23'0 0.5
2018-Jan-19 16:30N 39°50' W 075°23'0 0.0
2018-Jan-19 16:01N 39°50' W 075°23'0 0.0
2018-Jan-19 15:30N 39°50' W 075°23'0 0.0
2018-Jan-19 15:00N 39°50' W 075°23'3 5.6
2018-Jan-19 14:30N 39°51' W 075°20'2 3.4
2018-Jan-19 14:00N 39°51' W 075°18'0 0.0
2018-Jan-19 13:30N 39°51' W 075°18'0 0.0
2018-Jan-19 13:00N 39°51' W 075°18'0 0.0
2018-Jan-19 12:30N 39°51' W 075°18'0 0.0
2018-Jan-19 12:00N 39°51' W 075°18'0 0.0
2018-Jan-19 11:30N 39°51' W 075°18'0 0.0
2018-Jan-19 11:00N 39°51' W 075°18'0 0.0
2018-Jan-19 10:30N 39°51' W 075°18'0 0.0
2018-Jan-19 10:00N 39°51' W 075°18'0 0.0
2018-Jan-19 09:31N 39°51' W 075°18'0 0.0
2018-Jan-19 09:00N 39°51' W 075°18'0 0.0
2018-Jan-19 08:31N 39°51' W 075°18'0 0.0
2018-Jan-19 08:00N 39°51' W 075°18'0 0.0
2018-Jan-19 07:30N 39°51' W 075°18'0 0.0
2018-Jan-19 07:00N 39°51' W 075°18'0 0.0
2018-Jan-19 06:31N 39°51' W 075°18'0 0.0
2018-Jan-19 06:01N 39°51' W 075°18'0 0.0
2018-Jan-19 05:31N 39°51' W 075°18'0 0.0
2018-Jan-19 05:01N 39°51' W 075°18'0 0.0
2018-Jan-19 04:30N 39°51' W 075°18'0 0.0
2018-Jan-19 04:00N 39°51' W 075°18'0 0.0
2018-Jan-19 03:30N 39°51' W 075°18'0 0.0
2018-Jan-19 03:00N 39°51' W 075°18'0 0.0
2018-Jan-19 02:30N 39°51' W 075°18'0 0.0
2018-Jan-19 02:00N 39°51' W 075°18'0 0.0
2018-Jan-19 01:31N 39°51' W 075°18'0 0.0
2018-Jan-19 01:00N 39°51' W 075°18'0 0.0
2018-Jan-19 00:30N 39°51' W 075°18'0 0.0
2018-Jan-19 00:00N 39°51' W 075°18'0 0.0
2018-Jan-18 23:30N 39°51' W 075°18'0 0.0
2018-Jan-18 23:00N 39°51' W 075°18'0 0.0
2018-Jan-18 22:31N 39°51' W 075°18'0 0.0
2018-Jan-18 22:00N 39°51' W 075°18'0 0.0
2018-Jan-18 21:30N 39°51' W 075°18'0 0.0
2018-Jan-18 21:00N 39°51' W 075°18'0 0.0
2018-Jan-18 20:07N 39°51' W 075°18'0 0.0
2018-Jan-18 20:00N 39°51' W 075°18'0 0.0
2018-Jan-18 19:30N 39°51' W 075°18'0 0.0
2018-Jan-18 19:01N 39°51' W 075°18'0 0.0
2018-Jan-18 18:30N 39°51' W 075°18'0 0.0
2018-Jan-18 18:00N 39°51' W 075°18'0 0.0
2018-Jan-18 17:31N 39°51' W 075°18'4 7.6
2018-Jan-18 17:00N 39°50' W 075°22'3 6.6
2018-Jan-18 16:30N 39°48' W 075°26'1 2.2
2018-Jan-18 16:00N 39°47' W 075°27'2 4.6
2018-Jan-18 15:30N 39°49' W 075°24'1 2.9
2018-Jan-18 15:01N 39°50' W 075°23'0 0.0
2018-Jan-18 14:31N 39°50' W 075°23'0 0.5
2018-Jan-18 14:00N 39°50' W 075°23'0 0.5
2018-Jan-18 13:30N 39°50' W 075°23'0 0.1
2018-Jan-18 13:00N 39°50' W 075°23'0 0.5
2018-Jan-18 12:30N 39°49' W 075°23'3 5.8
2018-Jan-18 12:00N 39°51' W 075°20'2 3.4
2018-Jan-18 11:30N 39°51' W 075°18'0 0.0
2018-Jan-18 11:00N 39°51' W 075°18'0 0.0
2018-Jan-18 10:30N 39°51' W 075°18'0 0.0
2018-Jan-18 09:59N 39°51' W 075°18'0 0.0
2018-Jan-18 09:30N 39°51' W 075°18'0 0.0
2018-Jan-18 09:00N 39°51' W 075°18'0 0.0
2018-Jan-18 08:30N 39°51' W 075°18'0 0.0
2018-Jan-18 08:00N 39°51' W 075°18'0 0.0
2018-Jan-18 07:31N 39°51' W 075°18'0 0.0
2018-Jan-18 07:00N 39°51' W 075°18'0 0.0
2018-Jan-18 06:30N 39°51' W 075°18'0 0.0
2018-Jan-18 06:01N 39°51' W 075°18'0 0.0
2018-Jan-18 05:31N 39°51' W 075°18'0 0.0
2018-Jan-18 05:01N 39°51' W 075°18'0 0.0
2018-Jan-18 04:30N 39°51' W 075°18'0 0.0
2018-Jan-18 04:00N 39°51' W 075°18'0 0.0
2018-Jan-18 03:30N 39°51' W 075°18'0 0.0
2018-Jan-18 03:00N 39°51' W 075°18'0 0.0
2018-Jan-18 02:30N 39°51' W 075°18'0 0.0
2018-Jan-18 02:00N 39°51' W 075°18'0 0.0
2018-Jan-18 01:30N 39°51' W 075°18'0 0.0
2018-Jan-18 01:01N 39°51' W 075°18'0 0.0
2018-Jan-18 00:00N 39°51' W 075°18'0 0.0
2018-Jan-17 23:57N 39°51' W 075°18'  
2018-Jan-12 15:00N 39°50' W 075°23'0 0.0
2018-Jan-12 14:31N 39°50' W 075°23'0 0.0
2018-Jan-12 14:01N 39°50' W 075°23'0 0.0
2018-Jan-12 13:31N 39°50' W 075°23'0 0.0
2018-Jan-12 13:00N 39°50' W 075°23'0 0.0
2018-Jan-12 12:30N 39°50' W 075°23'0 0.0
2018-Jan-12 12:01N 39°50' W 075°23'0 0.0
2018-Jan-12 11:30N 39°50' W 075°23'0 0.0
2018-Jan-12 11:00N 39°50' W 075°23'0 0.0
2018-Jan-12 10:30N 39°50' W 075°23'0 0.0
2018-Jan-12 10:00N 39°50' W 075°23'0 0.0
2018-Jan-12 09:30N 39°50' W 075°23'0 0.0
2018-Jan-12 09:01N 39°50' W 075°23'0 0.0
2018-Jan-12 08:30N 39°50' W 075°23'0 0.0
2018-Jan-12 08:00N 39°50' W 075°23'0 0.0
2018-Jan-12 07:31N 39°50' W 075°23'0 0.0
2018-Jan-12 07:00N 39°50' W 075°23'0 0.0
2018-Jan-12 06:31N 39°50' W 075°23'0 0.0
2018-Jan-12 06:01N 39°50' W 075°23'0 0.0
2018-Jan-12 05:30N 39°50' W 075°23'0 0.0
2018-Jan-12 05:00N 39°50' W 075°23'0 0.0
2018-Jan-12 04:30N 39°50' W 075°23'0 0.0
2018-Jan-12 03:59N 39°50' W 075°23'0 0.0
2018-Jan-12 03:30N 39°50' W 075°23'0 0.0
2018-Jan-12 03:01N 39°50' W 075°23'0 0.0
2018-Jan-12 02:31N 39°50' W 075°23'0 0.0
2018-Jan-12 02:00N 39°50' W 075°23'0 0.0
2018-Jan-12 01:31N 39°50' W 075°23'0 0.0
2018-Jan-12 01:00N 39°50' W 075°23'0 0.0
2018-Jan-12 00:31N 39°50' W 075°23'0 0.0
2018-Jan-12 00:01N 39°50' W 075°23'0 0.0
2018-Jan-11 23:31N 39°50' W 075°23'0 0.0
2018-Jan-11 23:01N 39°50' W 075°23'0 0.0
2018-Jan-11 22:30N 39°50' W 075°23'0 0.0
2018-Jan-11 22:00N 39°50' W 075°23'0 0.0
2018-Jan-11 21:30N 39°50' W 075°23'0 0.0
2018-Jan-11 21:00N 39°50' W 075°23'0 0.0
2018-Jan-11 20:31N 39°50' W 075°23'0 0.0
2018-Jan-11 20:01N 39°50' W 075°23'0 0.0
2018-Jan-11 19:30N 39°50' W 075°23'0 0.0
2018-Jan-11 19:00N 39°50' W 075°23'0 0.0
2018-Jan-11 18:30N 39°50' W 075°23'  
Track history (hours):
 
Tides and Currents Weather Stations Pressure Air Temp Water Temp Dewpoint Dewpoint Depression Visibility Wind Speed Wind Dir Waves Ship Positions

Calcasieu River

Owner: Great Lakes Dredge & Dock Company, LLC, Oak Brook, IL. More information available from US FCC via Universal Licensing System and Coast Guard Vessel Documentation Center.

Last reported at 2018-Jan-21 18:00 UTC. Time now 2018-Jan-21 18:21 UTC.
Position N 39°51' W 075°18'.

; draft 3.3 m.

MMSI: 367313850.

Date/timePositionNaut miles runAvg speedWind from/ knotsBaromVisibWave heightAir tempDewpointWater temp
2018-Jan-21 18:00N 39°51' W 075°18'0 0.4
2018-Jan-21 17:30N 39°51' W 075°18'612.4
2018-Jan-21 16:59N 39°48' W 075°25'0 0.3
2018-Jan-21 16:26N 39°48' W 075°25'2 4.8
2018-Jan-21 16:00N 39°49' W 075°23'0 0.5
2018-Jan-21 15:30N 39°50' W 075°23'0 0.0
2018-Jan-21 15:00N 39°50' W 075°23'0 0.0
2018-Jan-21 14:30N 39°50' W 075°23'0 0.5
2018-Jan-21 14:00N 39°49' W 075°23'3 2.2
2018-Jan-21 12:32N 39°48' W 075°26'0 1.7
2018-Jan-21 12:28N 39°48' W 075°26'3 6.7
2018-Jan-21 12:00N 39°49' W 075°23'3 6.1
2018-Jan-21 11:30N 39°51' W 075°20'2 3.3
2018-Jan-21 11:00N 39°51' W 075°18'0 0.0
2018-Jan-21 10:31N 39°51' W 075°18'0 0.0
2018-Jan-21 10:00N 39°51' W 075°18'0 0.0
2018-Jan-21 09:30N 39°51' W 075°18'0 0.0
2018-Jan-21 09:00N 39°51' W 075°18'0 0.0
2018-Jan-21 08:30N 39°51' W 075°18'0 0.0
2018-Jan-21 08:00N 39°51' W 075°18'0 0.0
2018-Jan-21 07:30N 39°51' W 075°18'0 0.0
2018-Jan-21 07:00N 39°51' W 075°18'0 0.0
2018-Jan-21 06:30N 39°51' W 075°18'0 0.0
2018-Jan-21 06:00N 39°51' W 075°18'0 0.0
2018-Jan-21 05:30N 39°51' W 075°18'0 0.0
2018-Jan-21 05:00N 39°51' W 075°18'0 0.0
2018-Jan-21 04:30N 39°51' W 075°18'0 0.0
2018-Jan-21 04:00N 39°51' W 075°18'0 0.0
2018-Jan-21 03:30N 39°51' W 075°18'0 0.0
2018-Jan-21 03:00N 39°51' W 075°18'0 0.0
2018-Jan-21 02:30N 39°51' W 075°18'0 0.0
2018-Jan-21 02:00N 39°51' W 075°18'0 0.0
2018-Jan-21 01:30N 39°51' W 075°18'0 0.0
2018-Jan-21 01:00N 39°51' W 075°18'0 0.0
2018-Jan-21 00:30N 39°51' W 075°18'0 0.0
2018-Jan-21 00:00N 39°51' W 075°18'0 0.0
2018-Jan-20 23:30N 39°51' W 075°18'0 0.0
2018-Jan-20 23:00N 39°51' W 075°18'0 0.0
2018-Jan-20 22:30N 39°51' W 075°18'0 0.0
2018-Jan-20 22:00N 39°51' W 075°18'0 0.0
2018-Jan-20 21:30N 39°51' W 075°18'0 0.0
2018-Jan-20 21:00N 39°51' W 075°18'0 0.0
2018-Jan-20 20:30N 39°51' W 075°18'0 0.0
2018-Jan-20 20:00N 39°51' W 075°18'0 0.0
2018-Jan-20 19:30N 39°51' W 075°18'0 0.0
2018-Jan-20 19:00N 39°51' W 075°18'0 0.7
2018-Jan-20 18:30N 39°51' W 075°18'4 8.4
2018-Jan-20 18:00N 39°49' W 075°23'2 3.8
2018-Jan-20 17:31N 39°48' W 075°25'815.6
2018-Jan-20 16:59N 39°42' W 075°31'1 0.3
2018-Jan-20 13:37N 39°41' W 075°31'1 9.4
2018-Jan-20 13:29N 39°42' W 075°31'5 9.6
2018-Jan-20 12:58N 39°47' W 075°28'4 9.7
2018-Jan-20 12:31N 39°49' W 075°23'5 9.1
2018-Jan-20 12:00N 39°51' W 075°18'0 0.7
2018-Jan-20 11:30N 39°51' W 075°18'0 0.0
2018-Jan-20 11:01N 39°51' W 075°18'0 0.0
2018-Jan-20 10:31N 39°51' W 075°18'0 0.0
2018-Jan-20 09:59N 39°51' W 075°18'0 0.0
2018-Jan-20 09:30N 39°51' W 075°18'0 0.0
2018-Jan-20 09:00N 39°51' W 075°18'0 0.0
2018-Jan-20 08:30N 39°51' W 075°18'0 0.0
2018-Jan-20 08:00N 39°51' W 075°18'0 0.0
2018-Jan-20 07:30N 39°51' W 075°18'0 0.0
2018-Jan-20 07:00N 39°51' W 075°18'0 0.0
2018-Jan-20 06:30N 39°51' W 075°18'0 0.0
2018-Jan-20 06:00N 39°51' W 075°18'0 0.0
2018-Jan-20 05:30N 39°51' W 075°18'0 0.0
2018-Jan-20 05:00N 39°51' W 075°18'0 0.0
2018-Jan-20 04:30N 39°51' W 075°18'0 0.0
2018-Jan-20 04:00N 39°51' W 075°18'0 0.0
2018-Jan-20 03:30N 39°51' W 075°18'0 0.0
2018-Jan-20 03:00N 39°51' W 075°18'0 0.0
2018-Jan-20 02:30N 39°51' W 075°18'0 0.0
2018-Jan-20 02:00N 39°51' W 075°18'0 0.0
2018-Jan-20 01:30N 39°51' W 075°18'0 0.0
2018-Jan-20 01:00N 39°51' W 075°18'0 0.0
2018-Jan-20 00:30N 39°51' W 075°18'0 0.0
2018-Jan-20 00:00N 39°51' W 075°18'0 0.0
2018-Jan-19 23:30N 39°51' W 075°18'0 0.0
2018-Jan-19 23:00N 39°51' W 075°18'0 0.0
2018-Jan-19 22:30N 39°51' W 075°18'0 0.0
2018-Jan-19 22:00N 39°51' W 075°18'0 0.0
2018-Jan-19 21:30N 39°51' W 075°18'0 0.0
2018-Jan-19 21:00N 39°51' W 075°18'0 0.0
2018-Jan-19 20:30N 39°51' W 075°18'0 0.0
2018-Jan-19 20:00N 39°51' W 075°18'0 0.0
2018-Jan-19 19:30N 39°51' W 075°18'1 2.6
2018-Jan-19 19:00N 39°51' W 075°19'3 6.4
2018-Jan-19 18:30N 39°50' W 075°23'0 0.0
2018-Jan-19 18:00N 39°50' W 075°23'0 0.0
2018-Jan-19 17:30N 39°50' W 075°23'0 0.5
2018-Jan-19 17:00N 39°49' W 075°23'0 0.5
2018-Jan-19 16:30N 39°50' W 075°23'0 0.0
2018-Jan-19 16:01N 39°50' W 075°23'0 0.0
2018-Jan-19 15:30N 39°50' W 075°23'0 0.0
2018-Jan-19 15:00N 39°50' W 075°23'3 5.6
2018-Jan-19 14:30N 39°51' W 075°20'2 3.4
2018-Jan-19 14:00N 39°51' W 075°18'0 0.0
2018-Jan-19 13:30N 39°51' W 075°18'0 0.0
2018-Jan-19 13:00N 39°51' W 075°18'0 0.0
2018-Jan-19 12:30N 39°51' W 075°18'0 0.0
2018-Jan-19 12:00N 39°51' W 075°18'0 0.0
2018-Jan-19 11:30N 39°51' W 075°18'0 0.0
2018-Jan-19 11:00N 39°51' W 075°18'0 0.0
2018-Jan-19 10:30N 39°51' W 075°18'0 0.0
2018-Jan-19 10:00N 39°51' W 075°18'0 0.0
2018-Jan-19 09:31N 39°51' W 075°18'0 0.0
2018-Jan-19 09:00N 39°51' W 075°18'0 0.0
2018-Jan-19 08:31N 39°51' W 075°18'0 0.0
2018-Jan-19 08:00N 39°51' W 075°18'0 0.0
2018-Jan-19 07:30N 39°51' W 075°18'0 0.0
2018-Jan-19 07:00N 39°51' W 075°18'0 0.0
2018-Jan-19 06:31N 39°51' W 075°18'0 0.0
2018-Jan-19 06:01N 39°51' W 075°18'0 0.0
2018-Jan-19 05:31N 39°51' W 075°18'0 0.0
2018-Jan-19 05:01N 39°51' W 075°18'0 0.0
2018-Jan-19 04:30N 39°51' W 075°18'0 0.0
2018-Jan-19 04:00N 39°51' W 075°18'0 0.0
2018-Jan-19 03:30N 39°51' W 075°18'0 0.0
2018-Jan-19 03:00N 39°51' W 075°18'0 0.0
2018-Jan-19 02:30N 39°51' W 075°18'0 0.0
2018-Jan-19 02:00N 39°51' W 075°18'0 0.0
2018-Jan-19 01:31N 39°51' W 075°18'0 0.0
2018-Jan-19 01:00N 39°51' W 075°18'0 0.0
2018-Jan-19 00:30N 39°51' W 075°18'0 0.0
2018-Jan-19 00:00N 39°51' W 075°18'0 0.0
2018-Jan-18 23:30N 39°51' W 075°18'0 0.0
2018-Jan-18 23:00N 39°51' W 075°18'0 0.0
2018-Jan-18 22:31N 39°51' W 075°18'0 0.0
2018-Jan-18 22:00N 39°51' W 075°18'0 0.0
2018-Jan-18 21:30N 39°51' W 075°18'0 0.0
2018-Jan-18 21:00N 39°51' W 075°18'0 0.0
2018-Jan-18 20:07N 39°51' W 075°18'0 0.0
2018-Jan-18 20:00N 39°51' W 075°18'0 0.0
2018-Jan-18 19:30N 39°51' W 075°18'0 0.0
2018-Jan-18 19:01N 39°51' W 075°18'0 0.0
2018-Jan-18 18:30N 39°51' W 075°18'0 0.0
2018-Jan-18 18:00N 39°51' W 075°18'0 0.0
2018-Jan-18 17:31N 39°51' W 075°18'4 7.6
2018-Jan-18 17:00N 39°50' W 075°22'3 6.6
2018-Jan-18 16:30N 39°48' W 075°26'1 2.2
2018-Jan-18 16:00N 39°47' W 075°27'2 4.6
2018-Jan-18 15:30N 39°49' W 075°24'1 2.9
2018-Jan-18 15:01N 39°50' W 075°23'0 0.0
2018-Jan-18 14:31N 39°50' W 075°23'0 0.5
2018-Jan-18 14:00N 39°50' W 075°23'0 0.5
2018-Jan-18 13:30N 39°50' W 075°23'0 0.1
2018-Jan-18 13:00N 39°50' W 075°23'0 0.5
2018-Jan-18 12:30N 39°49' W 075°23'3 5.8
2018-Jan-18 12:00N 39°51' W 075°20'2 3.4
2018-Jan-18 11:30N 39°51' W 075°18'0 0.0
2018-Jan-18 11:00N 39°51' W 075°18'0 0.0
2018-Jan-18 10:30N 39°51' W 075°18'0 0.0
2018-Jan-18 09:59N 39°51' W 075°18'0 0.0
2018-Jan-18 09:30N 39°51' W 075°18'0 0.0
2018-Jan-18 09:00N 39°51' W 075°18'0 0.0
2018-Jan-18 08:30N 39°51' W 075°18'0 0.0
2018-Jan-18 08:00N 39°51' W 075°18'0 0.0
2018-Jan-18 07:31N 39°51' W 075°18'0 0.0
2018-Jan-18 07:00N 39°51' W 075°18'0 0.0
2018-Jan-18 06:30N 39°51' W 075°18'0 0.0
2018-Jan-18 06:01N 39°51' W 075°18'0 0.0
2018-Jan-18 05:31N 39°51' W 075°18'0 0.0
2018-Jan-18 05:01N 39°51' W 075°18'0 0.0
2018-Jan-18 04:30N 39°51' W 075°18'0 0.0
2018-Jan-18 04:00N 39°51' W 075°18'0 0.0
2018-Jan-18 03:30N 39°51' W 075°18'0 0.0
2018-Jan-18 03:00N 39°51' W 075°18'0 0.0
2018-Jan-18 02:30N 39°51' W 075°18'0 0.0
2018-Jan-18 02:00N 39°51' W 075°18'0 0.0
2018-Jan-18 01:30N 39°51' W 075°18'0 0.0
2018-Jan-18 01:01N 39°51' W 075°18'0 0.0
2018-Jan-18 00:00N 39°51' W 075°18'0 0.0
2018-Jan-17 23:57N 39°51' W 075°18'  
2018-Jan-12 15:00N 39°50' W 075°23'0 0.0
2018-Jan-12 14:31N 39°50' W 075°23'0 0.0
2018-Jan-12 14:01N 39°50' W 075°23'0 0.0
2018-Jan-12 13:31N 39°50' W 075°23'0 0.0
2018-Jan-12 13:00N 39°50' W 075°23'0 0.0
2018-Jan-12 12:30N 39°50' W 075°23'0 0.0
2018-Jan-12 12:01N 39°50' W 075°23'0 0.0
2018-Jan-12 11:30N 39°50' W 075°23'0 0.0
2018-Jan-12 11:00N 39°50' W 075°23'0 0.0
2018-Jan-12 10:30N 39°50' W 075°23'0 0.0
2018-Jan-12 10:00N 39°50' W 075°23'0 0.0
2018-Jan-12 09:30N 39°50' W 075°23'0 0.0
2018-Jan-12 09:01N 39°50' W 075°23'0 0.0
2018-Jan-12 08:30N 39°50' W 075°23'0 0.0
2018-Jan-12 08:00N 39°50' W 075°23'0 0.0
2018-Jan-12 07:31N 39°50' W 075°23'0 0.0
2018-Jan-12 07:00N 39°50' W 075°23'0 0.0
2018-Jan-12 06:31N 39°50' W 075°23'0 0.0
2018-Jan-12 06:01N 39°50' W 075°23'0 0.0
2018-Jan-12 05:30N 39°50' W 075°23'0 0.0
2018-Jan-12 05:00N 39°50' W 075°23'0 0.0
2018-Jan-12 04:30N 39°50' W 075°23'0 0.0
2018-Jan-12 03:59N 39°50' W 075°23'0 0.0
2018-Jan-12 03:30N 39°50' W 075°23'0 0.0
2018-Jan-12 03:01N 39°50' W 075°23'0 0.0
2018-Jan-12 02:31N 39°50' W 075°23'0 0.0
2018-Jan-12 02:00N 39°50' W 075°23'0 0.0
2018-Jan-12 01:31N 39°50' W 075°23'0 0.0
2018-Jan-12 01:00N 39°50' W 075°23'0 0.0
2018-Jan-12 00:31N 39°50' W 075°23'0 0.0
2018-Jan-12 00:01N 39°50' W 075°23'0 0.0
2018-Jan-11 23:31N 39°50' W 075°23'0 0.0
2018-Jan-11 23:01N 39°50' W 075°23'0 0.0
2018-Jan-11 22:30N 39°50' W 075°23'0 0.0
2018-Jan-11 22:00N 39°50' W 075°23'0 0.0
2018-Jan-11 21:30N 39°50' W 075°23'0 0.0
2018-Jan-11 21:00N 39°50' W 075°23'0 0.0
2018-Jan-11 20:31N 39°50' W 075°23'0 0.0
2018-Jan-11 20:01N 39°50' W 075°23'0 0.0
2018-Jan-11 19:30N 39°50' W 075°23'0 0.0
2018-Jan-11 19:00N 39°50' W 075°23'0 0.0
2018-Jan-11 18:30N 39°50' W 075°23'  

Dump ship's entire track history